sensor_id;sensor_type;location;lat;lon;timestamp;pressure;altitude;pressure_sealevel;temperature;humidity
46718;BME280;32448;44.960;-0.698;2023-12-22T00:01:34;102500.53;;;11.70;100.00
46718;BME280;32448;44.960;-0.698;2023-12-22T00:04:02;102506.66;;;11.70;100.00
46718;BME280;32448;44.960;-0.698;2023-12-22T00:06:45;102469.19;;;11.50;100.00
46718;BME280;32448;44.960;-0.698;2023-12-22T00:09:17;102496.34;;;11.75;100.00
46718;BME280;32448;44.960;-0.698;2023-12-22T00:11:47;102475.75;;;11.61;100.00
46718;BME280;32448;44.960;-0.698;2023-12-22T00:14:14;102497.94;;;11.71;100.00
46718;BME280;32448;44.960;-0.698;2023-12-22T00:16:48;102528.38;;;11.88;100.00
46718;BME280;32448;44.960;-0.698;2023-12-22T00:19:16;102498.09;;;11.74;100.00
46718;BME280;32448;44.960;-0.698;2023-12-22T00:21:55;102487.53;;;11.73;100.00
46718;BME280;32448;44.960;-0.698;2023-12-22T00:24:31;102501.00;;;11.80;100.00
46718;BME280;32448;44.960;-0.698;2023-12-22T00:27:08;102516.06;;;11.86;100.00
46718;BME280;32448;44.960;-0.698;2023-12-22T00:29:39;102462.97;;;11.69;100.00
46718;BME280;32448;44.960;-0.698;2023-12-22T00:32:09;102464.56;;;11.65;100.00
46718;BME280;32448;44.960;-0.698;2023-12-22T00:34:36;102515.97;;;11.84;100.00
46718;BME280;32448;44.960;-0.698;2023-12-22T00:37:03;102513.69;;;11.92;100.00
46718;BME280;32448;44.960;-0.698;2023-12-22T00:39:31;102517.00;;;11.88;100.00
46718;BME280;32448;44.960;-0.698;2023-12-22T00:41:57;102503.06;;;11.89;100.00
46718;BME280;32448;44.960;-0.698;2023-12-22T00:44:24;102509.84;;;11.84;100.00
46718;BME280;32448;44.960;-0.698;2023-12-22T00:46:54;102518.50;;;11.81;100.00
46718;BME280;32448;44.960;-0.698;2023-12-22T00:49:21;102507.16;;;11.82;100.00
46718;BME280;32448;44.960;-0.698;2023-12-22T00:51:48;102518.59;;;11.84;100.00
46718;BME280;32448;44.960;-0.698;2023-12-22T00:54:15;102508.06;;;11.83;100.00
46718;BME280;32448;44.960;-0.698;2023-12-22T00:56:42;102506.94;;;11.76;100.00
46718;BME280;32448;44.960;-0.698;2023-12-22T00:59:09;102511.19;;;11.74;100.00
46718;BME280;32448;44.960;-0.698;2023-12-22T01:06:21;102499.97;;;11.77;100.00
46718;BME280;32448;44.960;-0.698;2023-12-22T01:09:46;102492.72;;;11.71;100.00
46718;BME280;32448;44.960;-0.698;2023-12-22T01:12:14;102495.31;;;11.70;100.00
46718;BME280;32448;44.960;-0.698;2023-12-22T01:14:43;102496.53;;;11.78;100.00
46718;BME280;32448;44.960;-0.698;2023-12-22T01:17:12;102488.38;;;11.72;100.00
46718;BME280;32448;44.960;-0.698;2023-12-22T01:19:41;102485.66;;;11.68;100.00
46718;BME280;32448;44.960;-0.698;2023-12-22T01:22:08;102478.78;;;11.72;100.00
46718;BME280;32448;44.960;-0.698;2023-12-22T01:24:35;102489.09;;;11.67;100.00
46718;BME280;32448;44.960;-0.698;2023-12-22T01:27:06;102485.59;;;11.67;100.00
46718;BME280;32448;44.960;-0.698;2023-12-22T01:29:33;102491.06;;;11.73;100.00
46718;BME280;32448;44.960;-0.698;2023-12-22T01:32:00;102493.66;;;11.73;100.00
46718;BME280;32448;44.960;-0.698;2023-12-22T01:34:30;102490.00;;;11.68;100.00
46718;BME280;32448;44.960;-0.698;2023-12-22T01:37:02;102487.72;;;11.76;100.00
46718;BME280;32448;44.960;-0.698;2023-12-22T01:39:33;102494.94;;;11.81;100.00
46718;BME280;32448;44.960;-0.698;2023-12-22T01:42:17;102460.69;;;11.56;100.00
46718;BME280;32448;44.960;-0.698;2023-12-22T01:44:57;102424.91;;;11.34;100.00
46718;BME280;32448;44.960;-0.698;2023-12-22T01:47:39;102435.50;;;11.37;100.00
46718;BME280;32448;44.960;-0.698;2023-12-22T01:50:14;102470.16;;;11.52;100.00
46718;BME280;32448;44.960;-0.698;2023-12-22T01:53:08;102433.09;;;11.21;100.00
46718;BME280;32448;44.960;-0.698;2023-12-22T01:56:38;102478.22;;;11.36;100.00
46718;BME280;32448;44.960;-0.698;2023-12-22T01:59:16;102466.28;;;11.22;100.00
46718;BME280;32448;44.960;-0.698;2023-12-22T02:01:47;102488.44;;;11.30;100.00
46718;BME280;32448;44.960;-0.698;2023-12-22T02:04:21;102491.13;;;11.31;100.00
46718;BME280;32448;44.960;-0.698;2023-12-22T02:07:09;102487.91;;;11.39;100.00
46718;BME280;32448;44.960;-0.698;2023-12-22T02:09:42;102482.38;;;11.31;100.00
46718;BME280;32448;44.960;-0.698;2023-12-22T02:12:17;102502.03;;;11.42;100.00
46718;BME280;32448;44.960;-0.698;2023-12-22T02:14:48;102489.38;;;11.32;100.00
46718;BME280;32448;44.960;-0.698;2023-12-22T02:17:37;102477.81;;;11.27;100.00
46718;BME280;32448;44.960;-0.698;2023-12-22T02:20:10;102506.13;;;11.36;100.00
46718;BME280;32448;44.960;-0.698;2023-12-22T02:22:36;102518.25;;;11.34;100.00
46718;BME280;32448;44.960;-0.698;2023-12-22T02:25:12;102510.63;;;11.40;100.00
46718;BME280;32448;44.960;-0.698;2023-12-22T02:27:57;102506.00;;;11.32;100.00
46718;BME280;32448;44.960;-0.698;2023-12-22T02:30:31;102515.63;;;11.34;100.00
46718;BME280;32448;44.960;-0.698;2023-12-22T02:33:01;102507.72;;;11.32;100.00
46718;BME280;32448;44.960;-0.698;2023-12-22T02:35:29;102506.88;;;11.33;100.00
46718;BME280;32448;44.960;-0.698;2023-12-22T02:37:58;102500.50;;;11.26;100.00
46718;BME280;32448;44.960;-0.698;2023-12-22T02:40:27;102503.16;;;11.28;100.00
46718;BME280;32448;44.960;-0.698;2023-12-22T02:43:01;102497.19;;;11.30;100.00
46718;BME280;32448;44.960;-0.698;2023-12-22T02:45:29;102503.50;;;11.36;100.00
46718;BME280;32448;44.960;-0.698;2023-12-22T02:47:59;102501.66;;;11.33;100.00
46718;BME280;32448;44.960;-0.698;2023-12-22T02:50:26;102498.97;;;11.31;100.00
46718;BME280;32448;44.960;-0.698;2023-12-22T02:52:53;102488.34;;;11.28;100.00
46718;BME280;32448;44.960;-0.698;2023-12-22T02:55:20;102466.28;;;11.22;100.00
46718;BME280;32448;44.960;-0.698;2023-12-22T02:57:47;102484.28;;;11.35;100.00
46718;BME280;32448;44.960;-0.698;2023-12-22T03:00:39;102486.97;;;11.37;100.00
46718;BME280;32448;44.960;-0.698;2023-12-22T03:03:07;102454.72;;;11.17;100.00
46718;BME280;32448;44.960;-0.698;2023-12-22T03:05:35;102475.59;;;11.36;100.00
46718;BME280;32448;44.960;-0.698;2023-12-22T03:08:02;102453.19;;;11.22;100.00
46718;BME280;32448;44.960;-0.698;2023-12-22T03:10:29;102481.75;;;11.37;100.00
46718;BME280;32448;44.960;-0.698;2023-12-22T03:12:56;102477.94;;;11.30;100.00
46718;BME280;32448;44.960;-0.698;2023-12-22T03:15:23;102477.13;;;11.31;100.00
46718;BME280;32448;44.960;-0.698;2023-12-22T03:17:50;102484.28;;;11.35;100.00
46718;BME280;32448;44.960;-0.698;2023-12-22T03:20:17;102481.47;;;11.30;100.00
46718;BME280;32448;44.960;-0.698;2023-12-22T03:22:44;102460.00;;;11.18;100.00
46718;BME280;32448;44.960;-0.698;2023-12-22T03:25:11;102475.34;;;11.30;100.00
46718;BME280;32448;44.960;-0.698;2023-12-22T03:27:38;102481.66;;;11.35;100.00
46718;BME280;32448;44.960;-0.698;2023-12-22T03:30:05;102474.66;;;11.34;100.00
46718;BME280;32448;44.960;-0.698;2023-12-22T03:32:32;102465.63;;;11.48;100.00
46718;BME280;32448;44.960;-0.698;2023-12-22T03:34:59;102449.72;;;11.44;100.00
46718;BME280;32448;44.960;-0.698;2023-12-22T03:37:26;102433.59;;;11.33;100.00
46718;BME280;32448;44.960;-0.698;2023-12-22T03:39:52;102465.44;;;11.44;100.00
46718;BME280;32448;44.960;-0.698;2023-12-22T03:42:20;102470.25;;;11.33;100.00
46718;BME280;32448;44.960;-0.698;2023-12-22T03:44:47;102450.66;;;11.23;100.00
46718;BME280;32448;44.960;-0.698;2023-12-22T03:47:14;102468.59;;;11.35;100.00
46718;BME280;32448;44.960;-0.698;2023-12-22T03:49:42;102472.78;;;11.31;100.00
46718;BME280;32448;44.960;-0.698;2023-12-22T03:52:08;102472.59;;;11.27;100.00
46718;BME280;32448;44.960;-0.698;2023-12-22T03:54:35;102467.19;;;11.22;100.00
46718;BME280;32448;44.960;-0.698;2023-12-22T03:57:02;102480.41;;;11.25;100.00
46718;BME280;32448;44.960;-0.698;2023-12-22T03:59:29;102477.78;;;11.25;100.00
46718;BME280;32448;44.960;-0.698;2023-12-22T04:01:56;102482.50;;;11.34;100.00
46718;BME280;32448;44.960;-0.698;2023-12-22T04:04:24;102487.81;;;11.36;100.00
46718;BME280;32448;44.960;-0.698;2023-12-22T04:06:53;102484.22;;;11.34;100.00
46718;BME280;32448;44.960;-0.698;2023-12-22T04:09:20;102473.44;;;11.26;100.00
46718;BME280;32448;44.960;-0.698;2023-12-22T04:11:47;102495.00;;;11.41;100.00
46718;BME280;32448;44.960;-0.698;2023-12-22T04:14:14;102488.69;;;11.36;100.00
46718;BME280;32448;44.960;-0.698;2023-12-22T04:16:41;102495.81;;;11.40;100.00
46718;BME280;32448;44.960;-0.698;2023-12-22T04:19:08;102507.13;;;11.39;100.00
46718;BME280;32448;44.960;-0.698;2023-12-22T04:21:38;102506.28;;;11.40;100.00
46718;BME280;32448;44.960;-0.698;2023-12-22T04:24:05;102500.88;;;11.36;100.00
46718;BME280;32448;44.960;-0.698;2023-12-22T04:26:32;102507.25;;;11.42;100.00
46718;BME280;32448;44.960;-0.698;2023-12-22T04:28:59;102485.38;;;11.19;100.00
46718;BME280;32448;44.960;-0.698;2023-12-22T04:31:25;102503.31;;;11.31;100.00
46718;BME280;32448;44.960;-0.698;2023-12-22T04:33:52;102504.19;;;11.31;100.00
46718;BME280;32448;44.960;-0.698;2023-12-22T04:36:20;102502.28;;;11.27;100.00
46718;BME280;32448;44.960;-0.698;2023-12-22T04:38:46;102505.03;;;11.30;100.00
46718;BME280;32448;44.960;-0.698;2023-12-22T04:41:22;102473.03;;;11.17;100.00
46718;BME280;32448;44.960;-0.698;2023-12-22T04:44:15;102510.41;;;11.34;100.00
46718;BME280;32448;44.960;-0.698;2023-12-22T04:46:47;102508.53;;;11.31;100.00
46718;BME280;32448;44.960;-0.698;2023-12-22T04:49:40;102454.84;;;10.99;100.00
46718;BME280;32448;44.960;-0.698;2023-12-22T04:52:10;102459.41;;;11.03;100.00
46718;BME280;32448;44.960;-0.698;2023-12-22T04:54:44;102454.28;;;11.06;100.00
46718;BME280;32448;44.960;-0.698;2023-12-22T04:57:16;102470.19;;;11.11;100.00
46718;BME280;32448;44.960;-0.698;2023-12-22T04:59:54;102490.75;;;11.22;100.00
46718;BME280;32448;44.960;-0.698;2023-12-22T05:02:29;102453.28;;;11.03;100.00
46718;BME280;32448;44.960;-0.698;2023-12-22T05:05:03;102492.84;;;11.31;100.00
46718;BME280;32448;44.960;-0.698;2023-12-22T05:07:33;102460.34;;;11.05;100.00
46718;BME280;32448;44.960;-0.698;2023-12-22T05:10:08;102478.53;;;11.23;100.00
46718;BME280;32448;44.960;-0.698;2023-12-22T05:12:45;102486.53;;;11.26;100.00
46718;BME280;32448;44.960;-0.698;2023-12-22T05:15:15;102502.72;;;11.38;100.00
46718;BME280;32448;44.960;-0.698;2023-12-22T05:17:45;102476.56;;;11.17;100.00
46718;BME280;32448;44.960;-0.698;2023-12-22T05:20:16;102479.50;;;11.25;100.00
46718;BME280;32448;44.960;-0.698;2023-12-22T05:22:52;102478.63;;;11.24;100.00
46718;BME280;32448;44.960;-0.698;2023-12-22T05:25:21;102465.09;;;11.14;100.00
46718;BME280;32448;44.960;-0.698;2023-12-22T05:27:51;102466.91;;;11.16;100.00
46718;BME280;32448;44.960;-0.698;2023-12-22T05:30:22;102481.16;;;11.23;100.00
46718;BME280;32448;44.960;-0.698;2023-12-22T05:32:54;102478.47;;;11.21;100.00
46718;BME280;32448;44.960;-0.698;2023-12-22T05:35:35;102463.59;;;11.20;100.00
46718;BME280;32448;44.960;-0.698;2023-12-22T05:38:11;102528.66;;;11.53;100.00
46718;BME280;32448;44.960;-0.698;2023-12-22T05:40:54;102507.19;;;11.41;100.00
46718;BME280;32448;44.960;-0.698;2023-12-22T05:43:21;102506.66;;;11.49;100.00
46718;BME280;32448;44.960;-0.698;2023-12-22T05:45:58;102470.09;;;11.30;100.00
46718;BME280;32448;44.960;-0.698;2023-12-22T05:48:26;102474.19;;;11.23;100.00
46718;BME280;32448;44.960;-0.698;2023-12-22T05:50:58;102493.50;;;11.25;100.00
46718;BME280;32448;44.960;-0.698;2023-12-22T05:53:34;102496.16;;;11.27;100.00
46718;BME280;32448;44.960;-0.698;2023-12-22T05:56:19;102473.75;;;11.13;100.00
46718;BME280;32448;44.960;-0.698;2023-12-22T05:59:24;102491.81;;;11.27;100.00
46718;BME280;32448;44.960;-0.698;2023-12-22T06:01:54;102525.53;;;11.41;100.00
46718;BME280;32448;44.960;-0.698;2023-12-22T06:04:23;102494.81;;;11.37;100.00
46718;BME280;32448;44.960;-0.698;2023-12-22T06:06:50;102512.56;;;11.44;100.00
46718;BME280;32448;44.960;-0.698;2023-12-22T06:09:18;102513.53;;;11.46;100.00
46718;BME280;32448;44.960;-0.698;2023-12-22T06:11:47;102501.84;;;11.38;100.00
46718;BME280;32448;44.960;-0.698;2023-12-22T06:14:14;102514.09;;;11.39;100.00
46718;BME280;32448;44.960;-0.698;2023-12-22T06:16:41;102512.81;;;11.29;100.00
46718;BME280;32448;44.960;-0.698;2023-12-22T06:19:08;102522.84;;;11.39;100.00
46718;BME280;32448;44.960;-0.698;2023-12-22T06:21:39;102498.59;;;11.22;100.00
46718;BME280;32448;44.960;-0.698;2023-12-22T06:24:07;102522.00;;;11.40;100.00
46718;BME280;32448;44.960;-0.698;2023-12-22T06:26:36;102524.09;;;11.49;100.00
46718;BME280;32448;44.960;-0.698;2023-12-22T06:29:03;102509.44;;;11.31;100.00
46718;BME280;32448;44.960;-0.698;2023-12-22T06:31:30;102534.13;;;11.38;100.00
46718;BME280;32448;44.960;-0.698;2023-12-22T06:33:57;102535.81;;;11.36;100.00
46718;BME280;32448;44.960;-0.698;2023-12-22T06:36:29;102536.72;;;11.37;100.00
46718;BME280;32448;44.960;-0.698;2023-12-22T06:38:57;102546.59;;;11.44;100.00
46718;BME280;32448;44.960;-0.698;2023-12-22T06:41:28;102549.16;;;11.42;100.00
46718;BME280;32448;44.960;-0.698;2023-12-22T06:43:57;102551.00;;;11.45;100.00
46718;BME280;32448;44.960;-0.698;2023-12-22T06:46:27;102499.19;;;11.15;100.00
46718;BME280;32448;44.960;-0.698;2023-12-22T06:48:56;102553.81;;;11.49;100.00
46718;BME280;32448;44.960;-0.698;2023-12-22T06:51:28;102543.09;;;11.43;100.00
46718;BME280;32448;44.960;-0.698;2023-12-22T06:54:00;102550.94;;;11.43;100.00
46718;BME280;32448;44.960;-0.698;2023-12-22T06:56:30;102549.16;;;11.42;100.00
46718;BME280;32448;44.960;-0.698;2023-12-22T06:59:00;102548.56;;;11.49;100.00
46718;BME280;32448;44.960;-0.698;2023-12-22T07:01:32;102520.72;;;11.30;100.00
46718;BME280;32448;44.960;-0.698;2023-12-22T07:04:01;102553.03;;;11.52;100.00
46718;BME280;32448;44.960;-0.698;2023-12-22T07:06:33;102558.34;;;11.53;100.00
46718;BME280;32448;44.960;-0.698;2023-12-22T07:11:37;102552.59;;;11.62;100.00
46718;BME280;32448;44.960;-0.698;2023-12-22T07:14:04;102537.19;;;11.49;100.00
46718;BME280;32448;44.960;-0.698;2023-12-22T07:16:31;102539.06;;;11.51;100.00
46718;BME280;32448;44.960;-0.698;2023-12-22T07:18:59;102541.56;;;11.48;100.00
46718;BME280;32448;44.960;-0.698;2023-12-22T07:21:27;102565.75;;;11.63;100.00
46718;BME280;32448;44.960;-0.698;2023-12-22T07:23:54;102538.44;;;11.57;100.00
46718;BME280;32448;44.960;-0.698;2023-12-22T07:26:21;102539.94;;;11.52;100.00
46718;BME280;32448;44.960;-0.698;2023-12-22T07:28:51;102537.19;;;11.49;100.00
46718;BME280;32448;44.960;-0.698;2023-12-22T07:31:22;102530.75;;;11.41;100.00
46718;BME280;32448;44.960;-0.698;2023-12-22T07:33:50;102562.75;;;11.54;100.00
46718;BME280;32448;44.960;-0.698;2023-12-22T07:36:17;102554.59;;;11.47;100.00
46718;BME280;32448;44.960;-0.698;2023-12-22T07:38:48;102564.09;;;11.45;100.00
46718;BME280;32448;44.960;-0.698;2023-12-22T07:41:15;102553.63;;;11.45;100.00
46718;BME280;32448;44.960;-0.698;2023-12-22T07:43:44;102560.59;;;11.44;100.00
46718;BME280;32448;44.960;-0.698;2023-12-22T07:46:21;102559.75;;;11.45;100.00
46718;BME280;32448;44.960;-0.698;2023-12-22T07:48:50;102571.13;;;11.46;100.00
46718;BME280;32448;44.960;-0.698;2023-12-22T07:51:18;102583.41;;;11.47;100.00
46718;BME280;32448;44.960;-0.698;2023-12-22T07:53:45;102574.66;;;11.46;100.00
46718;BME280;32448;44.960;-0.698;2023-12-22T07:56:15;102575.63;;;11.48;100.00
46718;BME280;32448;44.960;-0.698;2023-12-22T07:58:42;102579.00;;;11.46;100.00
46718;BME280;32448;44.960;-0.698;2023-12-22T08:01:09;102586.84;;;11.46;100.00
46718;BME280;32448;44.960;-0.698;2023-12-22T08:03:45;102585.22;;;11.49;100.00
46718;BME280;32448;44.960;-0.698;2023-12-22T08:06:12;102590.53;;;11.51;100.00
46718;BME280;32448;44.960;-0.698;2023-12-22T08:08:40;102590.53;;;11.51;100.00
46718;BME280;32448;44.960;-0.698;2023-12-22T08:11:07;102584.34;;;11.49;100.00
46718;BME280;32448;44.960;-0.698;2023-12-22T08:13:34;102586.25;;;11.53;100.00
46718;BME280;32448;44.960;-0.698;2023-12-22T08:16:01;102590.47;;;11.49;100.00
46718;BME280;32448;44.960;-0.698;2023-12-22T08:18:29;102589.09;;;11.57;100.00
46718;BME280;32448;44.960;-0.698;2023-12-22T08:20:57;102606.91;;;11.66;100.00
46718;BME280;32448;44.960;-0.698;2023-12-22T08:23:26;102594.25;;;11.56;100.00
46718;BME280;32448;44.960;-0.698;2023-12-22T08:25:57;102598.66;;;11.57;100.00
46718;BME280;32448;44.960;-0.698;2023-12-22T08:28:24;102606.63;;;11.60;100.00
46718;BME280;32448;44.960;-0.698;2023-12-22T08:30:55;102604.91;;;11.60;100.00
46718;BME280;32448;44.960;-0.698;2023-12-22T08:33:22;102588.13;;;11.55;100.00
46718;BME280;32448;44.960;-0.698;2023-12-22T08:35:48;102618.41;;;11.70;100.00
46718;BME280;32448;44.960;-0.698;2023-12-22T08:38:15;102588.25;;;11.58;100.00
46718;BME280;32448;44.960;-0.698;2023-12-22T08:40:44;102611.56;;;11.73;100.00
46718;BME280;32448;44.960;-0.698;2023-12-22T08:43:11;102603.63;;;11.72;100.00
46718;BME280;32448;44.960;-0.698;2023-12-22T08:45:38;102601.16;;;11.75;100.00
46718;BME280;32448;44.960;-0.698;2023-12-22T08:48:05;102600.56;;;11.80;100.00
46718;BME280;32448;44.960;-0.698;2023-12-22T08:50:36;102605.91;;;11.83;100.00
46718;BME280;32448;44.960;-0.698;2023-12-22T08:53:03;102595.13;;;11.76;100.00
46718;BME280;32448;44.960;-0.698;2023-12-22T08:55:30;102603.25;;;11.82;100.00
46718;BME280;32448;44.960;-0.698;2023-12-22T08:57:57;102613.56;;;11.99;100.00
46718;BME280;32448;44.960;-0.698;2023-12-22T09:00:28;102598.94;;;11.84;100.00
46718;BME280;32448;44.960;-0.698;2023-12-22T09:02:55;102604.25;;;11.85;100.00
46718;BME280;32448;44.960;-0.698;2023-12-22T09:05:22;102607.38;;;11.97;100.00
46718;BME280;32448;44.960;-0.698;2023-12-22T09:07:49;102614.25;;;11.95;100.00
46718;BME280;32448;44.960;-0.698;2023-12-22T09:10:17;102615.00;;;11.91;100.00
46718;BME280;32448;44.960;-0.698;2023-12-22T09:12:43;102619.63;;;11.98;100.00
46718;BME280;32448;44.960;-0.698;2023-12-22T09:15:10;102624.19;;;12.02;100.00
46718;BME280;32448;44.960;-0.698;2023-12-22T09:17:37;102625.25;;;12.08;100.00
46718;BME280;32448;44.960;-0.698;2023-12-22T09:20:05;102631.44;;;12.10;100.00
46718;BME280;32448;44.960;-0.698;2023-12-22T09:22:32;102631.69;;;12.16;100.00
46718;BME280;32448;44.960;-0.698;2023-12-22T09:24:58;102635.59;;;12.25;100.00
46718;BME280;32448;44.960;-0.698;2023-12-22T09:27:25;102622.22;;;12.19;100.00
46718;BME280;32448;44.960;-0.698;2023-12-22T09:29:57;102635.41;;;12.21;100.00
46718;BME280;32448;44.960;-0.698;2023-12-22T09:32:24;102631.28;;;12.27;100.00
46718;BME280;32448;44.960;-0.698;2023-12-22T09:34:50;102631.59;;;12.35;100.00
46718;BME280;32448;44.960;-0.698;2023-12-22T09:37:18;102594.22;;;12.18;100.00
46718;BME280;32448;44.960;-0.698;2023-12-22T09:39:44;102617.69;;;12.37;100.00
46718;BME280;32448;44.960;-0.698;2023-12-22T09:42:11;102625.16;;;12.49;100.00
46718;BME280;32448;44.960;-0.698;2023-12-22T09:44:38;102639.75;;;12.43;100.00
46718;BME280;32448;44.960;-0.698;2023-12-22T09:47:06;102636.25;;;12.42;100.00
46718;BME280;32448;44.960;-0.698;2023-12-22T09:49:34;102630.78;;;12.36;100.00
46718;BME280;32448;44.960;-0.698;2023-12-22T09:52:02;102603.88;;;12.19;100.00
46718;BME280;32448;44.960;-0.698;2023-12-22T09:54:32;102648.47;;;12.42;100.00
46718;BME280;32448;44.960;-0.698;2023-12-22T09:57:00;102640.59;;;12.42;100.00
46718;BME280;32448;44.960;-0.698;2023-12-22T09:59:47;102651.34;;;12.48;100.00
46718;BME280;32448;44.960;-0.698;2023-12-22T10:02:15;102649.28;;;12.40;100.00
46718;BME280;32448;44.960;-0.698;2023-12-22T10:04:42;102652.16;;;12.47;100.00
46718;BME280;32448;44.960;-0.698;2023-12-22T10:07:10;102648.88;;;12.52;100.00
46718;BME280;32448;44.960;-0.698;2023-12-22T10:09:41;102633.44;;;12.37;100.00
46718;BME280;32448;44.960;-0.698;2023-12-22T10:12:11;102648.94;;;12.54;100.00
46718;BME280;32448;44.960;-0.698;2023-12-22T10:14:38;102620.69;;;12.47;100.00
46718;BME280;32448;44.960;-0.698;2023-12-22T10:17:06;102646.31;;;12.54;100.00
46718;BME280;32448;44.960;-0.698;2023-12-22T10:19:33;102654.41;;;12.60;100.00
46718;BME280;32448;44.960;-0.698;2023-12-22T10:22:00;102641.19;;;12.57;100.00
46718;BME280;32448;44.960;-0.698;2023-12-22T10:27:10;102620.91;;;12.53;100.00
46718;BME280;32448;44.960;-0.698;2023-12-22T10:29:37;102643.50;;;12.71;100.00
46718;BME280;32448;44.960;-0.698;2023-12-22T10:32:04;102615.69;;;12.53;100.00
46718;BME280;32448;44.960;-0.698;2023-12-22T10:34:34;102639.22;;;12.73;100.00
46718;BME280;32448;44.960;-0.698;2023-12-22T10:37:01;102641.78;;;12.72;100.00
46718;BME280;32448;44.960;-0.698;2023-12-22T10:39:29;102639.34;;;12.76;100.00
46718;BME280;32448;44.960;-0.698;2023-12-22T10:41:57;102612.63;;;12.64;100.00
46718;BME280;32448;44.960;-0.698;2023-12-22T10:44:25;102630.84;;;12.84;100.00
46718;BME280;32448;44.960;-0.698;2023-12-22T10:46:53;102632.47;;;12.80;100.00
46718;BME280;32448;44.960;-0.698;2023-12-22T10:49:22;102628.16;;;12.82;100.00
46718;BME280;32448;44.960;-0.698;2023-12-22T10:51:50;102633.53;;;12.85;100.00
46718;BME280;32448;44.960;-0.698;2023-12-22T10:54:18;102610.47;;;12.76;100.00
46718;BME280;32448;44.960;-0.698;2023-12-22T10:56:45;102629.44;;;12.69;100.00
46718;BME280;32448;44.960;-0.698;2023-12-22T10:59:12;102619.88;;;12.71;100.00
46718;BME280;32448;44.960;-0.698;2023-12-22T11:01:39;102620.97;;;12.76;100.00
46718;BME280;32448;44.960;-0.698;2023-12-22T11:04:07;102615.91;;;12.81;100.00
46718;BME280;32448;44.960;-0.698;2023-12-22T11:06:36;102602.72;;;12.80;100.00
46718;BME280;32448;44.960;-0.698;2023-12-22T11:09:07;102599.66;;;12.91;100.00
46718;BME280;32448;44.960;-0.698;2023-12-22T11:11:39;102605.22;;;13.00;100.00
46718;BME280;32448;44.960;-0.698;2023-12-22T11:14:07;102596.59;;;13.04;100.00
46718;BME280;32448;44.960;-0.698;2023-12-22T11:16:35;102602.88;;;13.08;100.00
46718;BME280;32448;44.960;-0.698;2023-12-22T11:19:03;102603.88;;;13.11;100.00
46718;BME280;32448;44.960;-0.698;2023-12-22T11:21:30;102593.09;;;13.04;100.00
46718;BME280;32448;44.960;-0.698;2023-12-22T11:23:57;102590.94;;;13.16;100.00
46718;BME280;32448;44.960;-0.698;2023-12-22T11:26:24;102578.22;;;13.04;100.00
46718;BME280;32448;44.960;-0.698;2023-12-22T11:28:52;102584.69;;;13.12;100.00
46718;BME280;32448;44.960;-0.698;2023-12-22T11:31:19;102576.41;;;13.02;100.00
46718;BME280;32448;44.960;-0.698;2023-12-22T11:33:49;102561.69;;;13.07;100.00
46718;BME280;32448;44.960;-0.698;2023-12-22T11:36:31;102556.09;;;13.20;100.00
46718;BME280;32448;44.960;-0.698;2023-12-22T11:38:58;102589.44;;;13.48;100.00
46718;BME280;32448;44.960;-0.698;2023-12-22T11:41:27;102585.06;;;13.48;100.00
46718;BME280;32448;44.960;-0.698;2023-12-22T11:43:57;102573.47;;;13.42;100.00
46718;BME280;32448;44.960;-0.698;2023-12-22T11:46:25;102576.28;;;13.46;100.00
46718;BME280;32448;44.960;-0.698;2023-12-22T11:48:52;102564.03;;;13.47;100.00
46718;BME280;32448;44.960;-0.698;2023-12-22T11:51:19;102578.41;;;13.58;100.00
46718;BME280;32448;44.960;-0.698;2023-12-22T11:53:47;102572.34;;;13.61;100.00
46718;BME280;32448;44.960;-0.698;2023-12-22T11:56:14;102578.66;;;13.66;100.00
46718;BME280;32448;44.960;-0.698;2023-12-22T11:58:46;102570.53;;;13.58;100.00
46718;BME280;32448;44.960;-0.698;2023-12-22T12:01:20;102561.75;;;13.58;100.00
46718;BME280;32448;44.960;-0.698;2023-12-22T12:03:50;102553.28;;;13.41;100.00
46718;BME280;32448;44.960;-0.698;2023-12-22T12:08:49;102553.00;;;13.59;100.00
46718;BME280;32448;44.960;-0.698;2023-12-22T12:11:18;102566.41;;;13.66;100.00
46718;BME280;32448;44.960;-0.698;2023-12-22T12:13:46;102548.69;;;13.61;100.00
46718;BME280;32448;44.960;-0.698;2023-12-22T12:16:15;102554.16;;;13.67;100.00
46718;BME280;32448;44.960;-0.698;2023-12-22T12:18:46;102556.75;;;13.65;100.00
46718;BME280;32448;44.960;-0.698;2023-12-22T12:21:13;102558.84;;;13.50;100.00
46718;BME280;32448;44.960;-0.698;2023-12-22T12:23:41;102544.63;;;13.70;100.00
46718;BME280;32448;44.960;-0.698;2023-12-22T12:26:08;102550.00;;;13.46;100.00
46718;BME280;32448;44.960;-0.698;2023-12-22T12:28:36;102509.97;;;13.28;100.00
46718;BME280;32448;44.960;-0.698;2023-12-22T12:31:07;102538.53;;;13.44;100.00
46718;BME280;32448;44.960;-0.698;2023-12-22T12:33:37;102545.59;;;13.20;100.00
46718;BME280;32448;44.960;-0.698;2023-12-22T12:36:05;102548.25;;;13.22;100.00
46718;BME280;32448;44.960;-0.698;2023-12-22T12:39:07;102546.06;;;13.10;100.00
46718;BME280;32448;44.960;-0.698;2023-12-22T12:41:41;102536.22;;;13.03;100.00
46718;BME280;32448;44.960;-0.698;2023-12-22T12:44:10;102530.41;;;12.88;100.00
46718;BME280;32448;44.960;-0.698;2023-12-22T12:46:38;102541.84;;;12.90;100.00
46718;BME280;32448;44.960;-0.698;2023-12-22T12:49:06;102542.13;;;12.97;100.00
46718;BME280;32448;44.960;-0.698;2023-12-22T12:51:40;102536.53;;;12.88;100.00
46718;BME280;32448;44.960;-0.698;2023-12-22T12:54:08;102510.94;;;12.81;100.00
46718;BME280;32448;44.960;-0.698;2023-12-22T12:56:46;102505.63;;;12.80;100.00
46718;BME280;32448;44.960;-0.698;2023-12-22T12:59:15;102534.50;;;13.05;100.00